Time;durP1;ratioP1;P1;durP2;ratioP2;P2;SDS_P1;SDS_P2;PMS_P1;PMS_P2;Temp;Humidity;BMP_temperature;BMP_pressure;BME280_temperature;BME280_humidity;BME280_pressure;Samples;Min_cycle;Max_cycle;Signal;HPM_P1;HPM_P2
2022/12/14 04:03:29;;;;;;;;;;;-2.30;99.90;;;;;;4893596;29;19983;-69
2022/12/14 04:05:59;;;;;;;;;;;-2.30;99.90;;;;;;4894419;29;19938;-69
2022/12/14 04:08:29;;;;;;;;;;;-2.30;99.90;;;;;;4888214;29;20022;-69
2022/12/14 04:19:29;;;;;;;;;;;-2.30;99.90;;;;;;4848655;29;20022;-70
2022/12/14 04:21:59;;;;;;;;;;;-2.30;99.90;;;;;;4874657;29;19984;-69
2022/12/14 04:27:14;;;;;;;;;;;-2.30;99.90;;;;;;4894381;29;20133;-70
2022/12/14 04:29:57;;;;;;;;;;;-2.30;99.90;;;;;;4891815;29;20453;-69
2022/12/14 04:32:28;;;;;;;;;;;-2.20;99.90;;;;;;4891602;29;19930;-69
2022/12/14 04:34:57;;;;;;;;;;;-2.30;99.90;;;;;;4894035;29;20011;-71
2022/12/14 04:37:26;;;;;;;;;;;-2.30;99.90;;;;;;4906522;29;19966;-69
2022/12/14 04:39:55;;;;;;;;;;;-2.30;99.90;;;;;;4906484;29;19928;-69
2022/12/14 04:42:24;;;;;;;;;;;-2.30;99.90;;;;;;4904269;29;19932;-71
2022/12/14 04:44:53;;;;;;;;;;;-2.20;99.90;;;;;;4890093;29;20026;-70
2022/12/14 04:47:22;;;;;;;;;;;-2.20;99.90;;;;;;4894907;29;19932;-70
2022/12/14 04:49:50;;;;;;;;;;;-2.30;99.90;;;;;;4891683;29;19931;-70
2022/12/14 04:52:19;;;;;;;;;;;-2.30;99.90;;;;;;4905585;29;19931;-69
2022/12/14 04:54:49;;;;;;;;;;;-2.30;99.90;;;;;;4910865;29;19932;-69
2022/12/14 04:57:20;;;;;;;;;;;-2.30;99.90;;;;;;4905638;29;19927;-70
2022/12/14 04:59:47;;;;;;;;;;;-2.30;99.90;;;;;;4908253;29;19951;-70
2022/12/14 05:02:19;;;;;;;;;;;-2.20;99.90;;;;;;4918310;29;19927;-71
2022/12/14 05:04:54;;;;;;;;;;;-2.30;99.90;;;;;;4911982;29;19927;-70
2022/12/14 05:07:31;;;;;;;;;;;-2.30;99.90;;;;;;4921188;29;20021;-69
2022/12/14 05:10:00;;;;;;;;;;;-2.30;99.90;;;;;;4909746;29;19927;-70
2022/12/14 05:12:28;;;;;;;;;;;-2.20;99.90;;;;;;4924251;29;19939;-70
2022/12/14 05:14:59;;;;;;;;;;;-2.20;99.90;;;;;;4908787;29;19927;-70
2022/12/14 05:17:27;;;;;;;;;;;-2.20;99.90;;;;;;4924458;29;19928;-72
2022/12/14 05:19:54;;;;;;;;;;;-2.30;99.90;;;;;;4924652;29;19928;-69
2022/12/14 05:22:21;;;;;;;;;;;-2.30;99.90;;;;;;4924139;29;19998;-71
2022/12/14 05:24:47;;;;;;;;;;;-2.30;99.90;;;;;;4925602;29;20396;-71
2022/12/14 05:27:16;;;;;;;;;;;-2.30;99.90;;;;;;4906746;29;19928;-74
2022/12/14 05:29:42;;;;;;;;;;;-2.20;99.90;;;;;;4914955;29;19927;-76
2022/12/14 05:32:11;;;;;;;;;;;-2.30;99.90;;;;;;4928227;29;20385;-69
2022/12/14 05:34:38;;;;;;;;;;;-2.30;99.90;;;;;;4926662;29;19931;-69
2022/12/14 05:37:04;;;;;;;;;;;-2.20;99.90;;;;;;4909867;29;19995;-69
2022/12/14 05:39:31;;;;;;;;;;;-2.20;99.90;;;;;;4926881;29;19927;-69
2022/12/14 05:41:58;;;;;;;;;;;-2.20;99.90;;;;;;4908470;29;19934;-69
2022/12/14 05:44:26;;;;;;;;;;;-2.20;99.90;;;;;;4925664;29;19934;-69
2022/12/14 05:46:54;;;;;;;;;;;-2.20;99.90;;;;;;4925291;29;19934;-68
2022/12/14 05:49:21;;;;;;;;;;;-2.20;99.90;;;;;;4911690;29;19934;-69
2022/12/14 05:51:48;;;;;;;;;;;-2.20;99.90;;;;;;4928617;29;19927;-69
2022/12/14 05:54:15;;;;;;;;;;;-2.20;99.90;;;;;;4907848;29;19970;-69
2022/12/14 05:56:42;;;;;;;;;;;-2.20;99.90;;;;;;4930046;29;19963;-70
2022/12/14 05:59:14;;;;;;;;;;;-2.20;99.90;;;;;;4926405;29;19931;-69
2022/12/14 06:01:42;;;;;;;;;;;-2.20;99.90;;;;;;4927127;29;19931;-69
2022/12/14 06:04:10;;;;;;;;;;;-2.20;99.90;;;;;;4904989;29;20395;-69
2022/12/14 06:06:37;;;;;;;;;;;-2.20;99.90;;;;;;4926106;29;19931;-70
2022/12/14 06:09:05;;;;;;;;;;;-2.20;99.90;;;;;;4927829;29;19975;-70
2022/12/14 06:11:31;;;;;;;;;;;-2.10;99.90;;;;;;4915031;29;19927;-70
2022/12/14 06:13:58;;;;;;;;;;;-2.10;99.90;;;;;;4918838;29;20314;-69
2022/12/14 06:16:26;;;;;;;;;;;-2.10;99.90;;;;;;4927008;29;19934;-71
2022/12/14 06:18:55;;;;;;;;;;;-2.10;99.90;;;;;;4927137;29;19927;-70
2022/12/14 06:21:24;;;;;;;;;;;-2.10;99.90;;;;;;4926880;29;19966;-71
2022/12/14 06:23:51;;;;;;;;;;;-2.10;99.90;;;;;;4925668;29;19928;-70
2022/12/14 06:26:18;;;;;;;;;;;-2.10;99.90;;;;;;4928202;29;19928;-71
2022/12/14 06:28:45;;;;;;;;;;;-2.10;99.90;;;;;;4928163;29;20343;-67
2022/12/14 06:31:14;;;;;;;;;;;-2.10;99.90;;;;;;4926154;29;19927;-70
2022/12/14 06:33:41;;;;;;;;;;;-2.00;99.90;;;;;;4910306;29;19934;-74
2022/12/14 06:36:15;;;;;;;;;;;-2.00;99.90;;;;;;4919205;29;20004;-74
2022/12/14 06:38:42;;;;;;;;;;;-2.10;99.90;;;;;;4911491;29;19927;-75
2022/12/14 06:41:09;;;;;;;;;;;-2.10;99.90;;;;;;4923826;29;19927;-72
2022/12/14 06:43:36;;;;;;;;;;;-2.10;99.90;;;;;;4930297;29;19927;-73
2022/12/14 06:46:06;;;;;;;;;;;-2.10;99.90;;;;;;4925572;29;19979;-70
2022/12/14 06:48:33;;;;;;;;;;;-2.10;99.90;;;;;;4925912;29;20287;-69
2022/12/14 06:51:00;;;;;;;;;;;-2.10;99.90;;;;;;4925749;29;19927;-69
2022/12/14 06:53:29;;;;;;;;;;;-2.10;99.90;;;;;;4911514;29;19927;-70
2022/12/14 06:56:04;;;;;;;;;;;-2.00;99.90;;;;;;4914316;29;20394;-70
2022/12/14 06:58:31;;;;;;;;;;;-2.00;99.90;;;;;;4910474;29;19931;-71
2022/12/14 07:01:00;;;;;;;;;;;-2.00;99.90;;;;;;4926131;29;20398;-70
2022/12/14 07:03:27;;;;;;;;;;;-2.00;99.90;;;;;;4923869;29;19927;-71
2022/12/14 07:05:55;;;;;;;;;;;-2.00;99.90;;;;;;4908985;29;19931;-70
2022/12/14 07:08:22;;;;;;;;;;;-2.00;99.90;;;;;;4910321;29;19927;-70
2022/12/14 07:10:50;;;;;;;;;;;-2.10;99.90;;;;;;4908218;29;19935;-69
2022/12/14 07:13:17;;;;;;;;;;;-2.10;99.90;;;;;;4925637;29;19927;-69
2022/12/14 07:15:44;;;;;;;;;;;-2.10;99.90;;;;;;4922574;29;19927;-70
2022/12/14 07:18:11;;;;;;;;;;;-2.10;99.90;;;;;;4929461;29;20034;-69
2022/12/14 07:20:38;;;;;;;;;;;-2.10;99.90;;;;;;4922712;29;19927;-68
2022/12/14 07:23:04;;;;;;;;;;;-2.10;99.90;;;;;;4929523;29;19950;-69
2022/12/14 07:25:31;;;;;;;;;;;-2.00;99.90;;;;;;4913156;29;19938;-69
2022/12/14 07:27:59;;;;;;;;;;;-2.10;99.90;;;;;;4907659;29;19928;-70
2022/12/14 07:30:26;;;;;;;;;;;-2.10;99.90;;;;;;4925488;29;19927;-71
2022/12/14 07:32:53;;;;;;;;;;;-2.00;99.90;;;;;;4927227;29;19927;-70
2022/12/14 07:35:20;;;;;;;;;;;-2.10;99.90;;;;;;4926057;29;19927;-70
2022/12/14 07:37:49;;;;;;;;;;;-2.10;99.90;;;;;;4922127;29;19932;-70
2022/12/14 07:40:16;;;;;;;;;;;-2.00;99.90;;;;;;4908200;29;19928;-68
2022/12/14 07:42:42;;;;;;;;;;;-2.00;99.90;;;;;;4920443;29;19927;-70
2022/12/14 07:45:11;;;;;;;;;;;-2.00;99.90;;;;;;4926257;29;19933;-70
2022/12/14 07:47:38;;;;;;;;;;;-2.00;99.90;;;;;;4902428;29;19927;-70
2022/12/14 07:50:05;;;;;;;;;;;-2.00;99.90;;;;;;4903679;29;19974;-70
2022/12/14 07:52:32;;;;;;;;;;;-2.00;99.90;;;;;;4905124;29;19942;-70
2022/12/14 07:54:59;;;;;;;;;;;-2.00;99.90;;;;;;4921415;29;19935;-70
2022/12/14 07:57:25;;;;;;;;;;;-2.00;99.90;;;;;;4903179;29;19927;-69
2022/12/14 07:59:52;;;;;;;;;;;-1.90;99.90;;;;;;4921667;29;19931;-69
2022/12/14 08:02:20;;;;;;;;;;;-2.00;99.90;;;;;;4921887;29;20378;-70
2022/12/14 08:04:47;;;;;;;;;;;-2.00;99.90;;;;;;4924945;29;20337;-70
2022/12/14 08:07:14;;;;;;;;;;;-2.00;99.90;;;;;;4922693;29;19928;-70
2022/12/14 08:09:41;;;;;;;;;;;-1.90;99.90;;;;;;4905829;29;19990;-70
2022/12/14 08:12:08;;;;;;;;;;;-1.80;99.90;;;;;;4906115;29;19927;-70
2022/12/14 08:14:34;;;;;;;;;;;-1.80;99.90;;;;;;4928294;29;20402;-70
2022/12/14 08:17:01;;;;;;;;;;;-1.80;99.90;;;;;;4923802;29;20398;-70
2022/12/14 08:19:29;;;;;;;;;;;-1.70;99.90;;;;;;4905711;29;19936;-69
2022/12/14 08:21:56;;;;;;;;;;;-1.60;99.90;;;;;;4920580;29;19927;-69
2022/12/14 08:24:23;;;;;;;;;;;-1.60;99.90;;;;;;4902150;29;19931;-69
2022/12/14 08:26:49;;;;;;;;;;;-1.60;99.90;;;;;;4909180;29;19928;-70
2022/12/14 08:29:17;;;;;;;;;;;-1.60;99.90;;;;;;4918015;29;19935;-68
2022/12/14 08:31:43;;;;;;;;;;;-1.60;99.90;;;;;;4912209;29;19931;-70
2022/12/14 08:34:10;;;;;;;;;;;-1.60;99.90;;;;;;4920401;29;19983;-70
2022/12/14 08:36:38;;;;;;;;;;;-1.60;99.90;;;;;;4924184;29;19927;-69
2022/12/14 08:39:06;;;;;;;;;;;-1.50;99.90;;;;;;4906540;29;19927;-71
2022/12/14 08:41:33;;;;;;;;;;;-1.50;99.90;;;;;;4924446;29;19931;-69
2022/12/14 08:44:01;;;;;;;;;;;-1.50;99.90;;;;;;4904161;29;19974;-70
2022/12/14 08:46:28;;;;;;;;;;;-1.50;99.90;;;;;;4918588;29;19931;-69
2022/12/14 08:48:56;;;;;;;;;;;-1.50;99.90;;;;;;4908976;29;19927;-70
2022/12/14 08:51:23;;;;;;;;;;;-1.50;99.90;;;;;;4928618;29;19927;-71
2022/12/14 08:53:51;;;;;;;;;;;-1.40;99.90;;;;;;4908896;29;19967;-71
2022/12/14 08:56:19;;;;;;;;;;;-1.40;99.90;;;;;;4928816;29;19931;-70
2022/12/14 08:58:46;;;;;;;;;;;-1.40;99.90;;;;;;4913847;29;19949;-69
2022/12/14 09:01:14;;;;;;;;;;;-1.40;99.90;;;;;;4916173;29;19934;-69
2022/12/14 09:03:41;;;;;;;;;;;-1.30;99.90;;;;;;4925144;29;19927;-70
2022/12/14 09:06:09;;;;;;;;;;;-1.20;99.90;;;;;;4925281;29;19927;-69
2022/12/14 09:08:36;;;;;;;;;;;-1.20;99.90;;;;;;4926101;29;20026;-69
2022/12/14 09:11:05;;;;;;;;;;;-1.10;99.90;;;;;;4929264;29;20350;-70
2022/12/14 09:13:32;;;;;;;;;;;-1.00;99.90;;;;;;4928194;29;19979;-70
2022/12/14 09:16:00;;;;;;;;;;;-0.90;99.90;;;;;;4928652;29;19934;-70
2022/12/14 09:18:27;;;;;;;;;;;-0.80;99.90;;;;;;4931609;29;19934;-71
2022/12/14 09:20:54;;;;;;;;;;;-0.70;99.90;;;;;;4924612;29;19931;-71
2022/12/14 09:23:21;;;;;;;;;;;-0.60;99.90;;;;;;4925318;29;19927;-71
2022/12/14 09:25:57;;;;;;;;;;;-0.40;99.90;;;;;;4921030;29;20313;-70
2022/12/14 09:28:26;;;;;;;;;;;-0.30;99.90;;;;;;4909008;29;19995;-68
2022/12/14 09:30:54;;;;;;;;;;;-0.20;99.90;;;;;;4911006;29;20033;-69
2022/12/14 09:33:21;;;;;;;;;;;-0.20;99.90;;;;;;4925997;29;20363;-70
2022/12/14 09:35:47;;;;;;;;;;;-0.10;99.90;;;;;;4911672;29;19961;-70
2022/12/14 09:38:14;;;;;;;;;;;0.00;99.90;;;;;;4920936;29;19935;-70
2022/12/14 09:40:43;;;;;;;;;;;0.20;99.90;;;;;;4906894;29;20022;-70
2022/12/14 09:43:14;;;;;;;;;;;0.30;99.90;;;;;;4926696;29;19934;-70
2022/12/14 09:45:46;;;;;;;;;;;0.40;99.90;;;;;;4914974;29;19935;-70
2022/12/14 09:48:15;;;;;;;;;;;0.40;99.90;;;;;;4928949;29;19938;-69
2022/12/14 09:50:43;;;;;;;;;;;0.40;99.90;;;;;;4930984;29;19931;-69
2022/12/14 09:53:12;;;;;;;;;;;0.50;99.90;;;;;;4930588;29;19931;-70
2022/12/14 09:55:41;;;;;;;;;;;0.50;99.90;;;;;;4913635;29;19937;-70
2022/12/14 09:58:13;;;;;;;;;;;0.40;99.90;;;;;;4928534;29;19927;-69
2022/12/14 10:00:43;;;;;;;;;;;0.30;99.90;;;;;;4926480;29;19942;-69
2022/12/14 10:03:20;;;;;;;;;;;0.30;99.90;;;;;;4911410;29;19927;-68
2022/12/14 10:06:02;;;;;;;;;;;0.20;99.90;;;;;;4911685;29;19935;-70
2022/12/14 10:08:31;;;;;;;;;;;0.30;99.90;;;;;;4919371;29;19931;-70
2022/12/14 10:11:02;;;;;;;;;;;0.30;99.90;;;;;;4911834;29;19996;-69
2022/12/14 10:13:34;;;;;;;;;;;0.30;99.90;;;;;;4922959;29;19928;-70
2022/12/14 10:16:07;;;;;;;;;;;0.30;99.90;;;;;;4928174;29;19933;-69
2022/12/14 10:18:49;;;;;;;;;;;0.20;99.90;;;;;;4922770;29;19954;-69
2022/12/14 10:21:19;;;;;;;;;;;0.10;99.90;;;;;;4908879;29;20310;-69
2022/12/14 10:23:50;;;;;;;;;;;0.00;99.90;;;;;;4921997;29;20296;-69
2022/12/14 10:26:26;;;;;;;;;;;0.00;99.90;;;;;;4923884;29;19927;-68
2022/12/14 10:28:56;;;;;;;;;;;0.00;99.90;;;;;;4926420;29;19983;-69
2022/12/14 10:31:26;;;;;;;;;;;0.10;99.90;;;;;;4920715;29;19933;-68
2022/12/14 10:33:56;;;;;;;;;;;0.10;99.90;;;;;;4907538;29;19934;-68
2022/12/14 10:36:26;;;;;;;;;;;0.20;99.90;;;;;;4923962;29;19927;-69
2022/12/14 10:38:57;;;;;;;;;;;0.20;99.90;;;;;;4923599;29;19927;-69
2022/12/14 10:41:30;;;;;;;;;;;0.20;99.90;;;;;;4908376;29;19931;-69
2022/12/14 10:44:01;;;;;;;;;;;0.30;99.90;;;;;;4915879;29;19931;-69
2022/12/14 10:46:40;;;;;;;;;;;0.40;99.90;;;;;;4929322;29;19931;-72
2022/12/14 10:49:12;;;;;;;;;;;0.20;99.90;;;;;;4908507;29;19932;-71
2022/12/14 10:51:42;;;;;;;;;;;0.20;99.90;;;;;;4901530;29;19942;-70
2022/12/14 10:54:14;;;;;;;;;;;0.20;99.90;;;;;;4899781;29;19943;-70
2022/12/14 10:56:42;;;;;;;;;;;0.30;99.90;;;;;;4920893;29;19931;-71
2022/12/14 10:59:26;;;;;;;;;;;0.40;99.90;;;;;;4923268;29;20364;-70
2022/12/14 11:01:54;;;;;;;;;;;0.50;99.90;;;;;;4907780;29;19935;-70
2022/12/14 11:04:29;;;;;;;;;;;0.70;99.90;;;;;;4918973;29;19982;-71
2022/12/14 11:06:57;;;;;;;;;;;0.80;99.90;;;;;;4902003;29;19934;-70
2022/12/14 11:09:24;;;;;;;;;;;1.10;99.90;;;;;;4928449;29;19927;-70
2022/12/14 11:11:55;;;;;;;;;;;1.30;99.90;;;;;;4926778;29;20018;-69
2022/12/14 11:14:22;;;;;;;;;;;1.60;99.90;;;;;;4908257;29;19927;-69
2022/12/14 11:16:49;;;;;;;;;;;2.00;99.90;;;;;;4921857;29;19927;-70
2022/12/14 11:19:18;;;;;;;;;;;2.40;99.90;;;;;;4922221;29;19928;-69
2022/12/14 11:21:45;;;;;;;;;;;3.00;99.90;;;;;;4921305;29;19931;-69
2022/12/14 11:24:23;;;;;;;;;;;3.70;99.90;;;;;;4908834;29;19987;-67
2022/12/14 11:26:52;;;;;;;;;;;4.30;99.90;;;;;;4917413;29;19935;-68
2022/12/14 11:29:20;;;;;;;;;;;4.50;99.90;;;;;;4921909;29;19927;-70
2022/12/14 11:31:48;;;;;;;;;;;4.40;99.90;;;;;;4922666;29;19935;-71
2022/12/14 11:34:20;;;;;;;;;;;4.40;99.90;;;;;;4909302;29;19958;-67
2022/12/14 11:36:48;;;;;;;;;;;4.10;99.90;;;;;;4920634;29;20367;-68
2022/12/14 11:39:20;;;;;;;;;;;4.40;99.90;;;;;;4908393;29;19983;-68
2022/12/14 11:41:50;;;;;;;;;;;4.90;99.90;;;;;;4917508;29;19935;-68
2022/12/14 11:44:22;;;;;;;;;;;4.90;99.90;;;;;;4911650;29;19955;-68
2022/12/14 11:46:51;;;;;;;;;;;5.50;99.90;;;;;;4920173;29;20387;-67
2022/12/14 11:49:20;;;;;;;;;;;6.30;99.90;;;;;;4909303;29;19935;-68
2022/12/14 11:51:54;;;;;;;;;;;7.60;99.90;;;;;;4918617;29;19935;-67
2022/12/14 11:54:21;;;;;;;;;;;7.40;99.90;;;;;;4906029;29;19934;-68
2022/12/14 11:56:51;;;;;;;;;;;6.80;99.90;;;;;;4920063;29;19927;-68
2022/12/14 11:59:18;;;;;;;;;;;7.10;99.90;;;;;;4912253;29;19927;-68
2022/12/14 12:01:45;;;;;;;;;;;8.70;99.90;;;;;;4915131;29;19931;-69
2022/12/14 12:04:13;;;;;;;;;;;11.50;99.90;;;;;;4921854;29;20306;-69
2022/12/14 12:06:40;;;;;;;;;;;13.60;99.90;;;;;;4920081;29;19962;-68
2022/12/14 12:09:11;;;;;;;;;;;14.70;99.90;;;;;;4898055;29;19931;-69
2022/12/14 12:11:44;;;;;;;;;;;15.60;99.90;;;;;;4918405;29;19927;-69
2022/12/14 12:14:22;;;;;;;;;;;16.30;99.90;;;;;;4901608;29;19935;-69
2022/12/14 12:16:51;;;;;;;;;;;16.70;99.90;;;;;;4925702;29;19931;-68
2022/12/14 12:19:22;;;;;;;;;;;17.20;99.90;;;;;;4926689;29;19927;-68
2022/12/14 12:21:49;;;;;;;;;;;17.30;99.90;;;;;;4909709;29;19963;-68
2022/12/14 12:24:18;;;;;;;;;;;17.40;99.90;;;;;;4929210;29;20352;-68
2022/12/14 12:26:47;;;;;;;;;;;18.00;99.90;;;;;;4927821;29;19937;-68
2022/12/14 12:29:19;;;;;;;;;;;18.10;99.90;;;;;;4924090;29;19927;-70
2022/12/14 12:31:50;;;;;;;;;;;17.40;99.90;;;;;;4919859;29;19931;-70
2022/12/14 12:34:19;;;;;;;;;;;17.10;99.90;;;;;;4925293;29;19927;-67
2022/12/14 12:36:47;;;;;;;;;;;17.00;99.90;;;;;;4914797;29;19935;-69
2022/12/14 12:39:15;;;;;;;;;;;16.30;99.90;;;;;;4913108;29;19934;-67
2022/12/14 12:41:46;;;;;;;;;;;14.20;99.90;;;;;;4916684;29;19933;-67
2022/12/14 12:44:21;;;;;;;;;;;13.50;99.90;;;;;;4932592;29;19927;-69
2022/12/14 12:46:54;;;;;;;;;;;15.30;99.90;;;;;;4925083;29;19934;-69
2022/12/14 12:49:20;;;;;;;;;;;16.40;99.90;;;;;;4917159;29;20398;-71
2022/12/14 12:51:52;;;;;;;;;;;16.90;99.90;;;;;;4933107;29;19939;-70
2022/12/14 12:54:22;;;;;;;;;;;17.70;99.90;;;;;;4922118;29;19933;-69
2022/12/14 12:56:50;;;;;;;;;;;18.10;99.90;;;;;;4911528;29;20027;-68
2022/12/14 12:59:19;;;;;;;;;;;17.80;99.90;;;;;;4923971;29;19931;-68
2022/12/14 13:01:48;;;;;;;;;;;18.20;99.70;;;;;;4927605;29;19927;-68
2022/12/14 13:04:20;;;;;;;;;;;18.00;99.00;;;;;;4909743;29;19935;-68
2022/12/14 13:06:50;;;;;;;;;;;17.90;98.70;;;;;;4927139;29;19927;-69
2022/12/14 13:09:21;;;;;;;;;;;17.60;98.70;;;;;;4932120;29;19927;-69
2022/12/14 13:11:48;;;;;;;;;;;17.60;98.50;;;;;;4916343;29;19935;-69
2022/12/14 13:14:19;;;;;;;;;;;16.20;99.40;;;;;;4912061;29;20280;-69
2022/12/14 13:16:49;;;;;;;;;;;15.30;99.90;;;;;;4923256;29;19939;-68
2022/12/14 13:19:18;;;;;;;;;;;15.30;99.90;;;;;;4924692;29;19931;-68
2022/12/14 13:21:46;;;;;;;;;;;15.30;99.90;;;;;;4930605;29;19928;-68
2022/12/14 13:24:16;;;;;;;;;;;15.30;99.90;;;;;;4912793;29;19959;-69
2022/12/14 13:27:03;;;;;;;;;;;14.90;99.90;;;;;;4931937;29;19933;-71
2022/12/14 13:29:36;;;;;;;;;;;14.30;99.90;;;;;;4924403;29;19927;-68
2022/12/14 13:32:09;;;;;;;;;;;14.40;99.90;;;;;;4929475;29;19928;-69
2022/12/14 13:34:41;;;;;;;;;;;14.50;99.90;;;;;;4924974;29;20375;-68
2022/12/14 13:37:23;;;;;;;;;;;14.30;99.90;;;;;;4921637;29;19927;-68
2022/12/14 13:40:14;;;;;;;;;;;13.80;99.90;;;;;;4911679;29;19931;-69
2022/12/14 13:42:46;;;;;;;;;;;13.70;99.90;;;;;;4911747;29;19927;-68
2022/12/14 13:45:16;;;;;;;;;;;13.10;99.90;;;;;;4906329;29;19931;-68
2022/12/14 13:47:47;;;;;;;;;;;13.20;99.90;;;;;;4907082;29;20434;-68
2022/12/14 13:50:25;;;;;;;;;;;13.20;99.90;;;;;;4924840;29;20026;-67
2022/12/14 13:52:54;;;;;;;;;;;13.10;99.90;;;;;;4923858;29;19928;-68
2022/12/14 13:55:25;;;;;;;;;;;12.40;99.90;;;;;;4922348;29;19934;-69
2022/12/14 13:57:52;;;;;;;;;;;11.60;99.90;;;;;;4925616;29;19931;-68
2022/12/14 14:00:36;;;;;;;;;;;11.80;99.90;;;;;;4909047;29;19934;-68
2022/12/14 14:03:04;;;;;;;;;;;11.70;99.90;;;;;;4914303;29;19931;-68
2022/12/14 14:05:44;;;;;;;;;;;11.70;99.90;;;;;;4925198;29;19979;-68
2022/12/14 14:08:28;;;;;;;;;;;11.40;99.90;;;;;;4922425;29;19976;-68
2022/12/14 14:10:55;;;;;;;;;;;11.20;99.90;;;;;;4926468;29;19933;-69
2022/12/14 14:13:41;;;;;;;;;;;11.30;99.90;;;;;;4907783;29;19939;-68
2022/12/14 14:16:13;;;;;;;;;;;11.40;99.90;;;;;;4907666;29;19931;-68
2022/12/14 14:18:48;;;;;;;;;;;11.20;99.90;;;;;;4919459;29;19937;-69
2022/12/14 14:21:29;;;;;;;;;;;10.90;99.90;;;;;;4922573;29;19935;-70
2022/12/14 14:23:56;;;;;;;;;;;10.90;99.90;;;;;;4920223;29;20363;-70
2022/12/14 14:26:25;;;;;;;;;;;10.70;99.90;;;;;;4924385;29;19979;-68
2022/12/14 14:29:06;;;;;;;;;;;10.90;99.90;;;;;;4903430;29;19928;-69
2022/12/14 14:31:47;;;;;;;;;;;11.00;99.90;;;;;;4918741;29;19927;-68
2022/12/14 14:34:22;;;;;;;;;;;10.80;99.90;;;;;;4916767;29;19928;-69
2022/12/14 14:36:49;;;;;;;;;;;10.70;99.90;;;;;;4920155;29;19927;-69
2022/12/14 14:39:29;;;;;;;;;;;11.00;99.90;;;;;;4907304;29;20395;-69
2022/12/14 14:41:56;;;;;;;;;;;10.80;99.90;;;;;;4920673;29;19927;-67
2022/12/14 14:44:34;;;;;;;;;;;10.50;99.90;;;;;;4922891;29;19927;-66
2022/12/14 14:47:00;;;;;;;;;;;10.10;99.90;;;;;;4913146;29;19934;-68
2022/12/14 14:49:30;;;;;;;;;;;9.90;99.90;;;;;;4919353;29;20299;-68
2022/12/14 14:52:18;;;;;;;;;;;9.80;99.90;;;;;;4919782;29;19932;-69
2022/12/14 14:54:45;;;;;;;;;;;9.40;99.90;;;;;;4921478;29;19931;-69
2022/12/14 14:57:32;;;;;;;;;;;8.70;99.90;;;;;;4917887;29;19927;-69
2022/12/14 15:00:00;;;;;;;;;;;7.70;99.90;;;;;;4927240;29;19943;-67
2022/12/14 15:02:30;;;;;;;;;;;6.70;99.90;;;;;;4913730;29;19931;-68
2022/12/14 15:04:59;;;;;;;;;;;6.00;99.90;;;;;;4912279;29;19927;-67
2022/12/14 15:07:28;;;;;;;;;;;5.20;99.90;;;;;;4925771;29;19927;-68
2022/12/14 15:09:57;;;;;;;;;;;4.50;99.90;;;;;;4920965;29;19928;-67
2022/12/14 15:12:29;;;;;;;;;;;4.00;99.90;;;;;;4925088;29;19964;-68
2022/12/14 15:14:59;;;;;;;;;;;3.60;99.90;;;;;;4919573;29;20398;-66
2022/12/14 15:17:26;;;;;;;;;;;3.10;99.90;;;;;;4915078;29;19958;-66
2022/12/14 15:19:54;;;;;;;;;;;2.60;99.90;;;;;;4926894;29;19927;-67
2022/12/14 15:22:23;;;;;;;;;;;2.30;99.90;;;;;;4916620;29;19927;-67
2022/12/14 15:24:52;;;;;;;;;;;2.00;99.90;;;;;;4918965;29;19927;-66
2022/12/14 15:27:22;;;;;;;;;;;1.80;99.90;;;;;;4922216;29;19931;-67
2022/12/14 15:29:49;;;;;;;;;;;1.60;99.90;;;;;;4918741;29;19934;-67
2022/12/14 15:32:18;;;;;;;;;;;1.40;99.90;;;;;;4922741;29;19928;-68
2022/12/14 15:34:51;;;;;;;;;;;1.20;99.90;;;;;;4907784;29;19979;-68
2022/12/14 15:37:24;;;;;;;;;;;1.00;99.90;;;;;;4902099;29;19938;-73
2022/12/14 15:40:00;;;;;;;;;;;0.80;99.90;;;;;;4923057;29;19974;-68
2022/12/14 15:42:27;;;;;;;;;;;0.70;99.90;;;;;;4922222;29;19967;-68
2022/12/14 15:44:54;;;;;;;;;;;0.50;99.90;;;;;;4906154;29;19927;-68
2022/12/14 15:47:22;;;;;;;;;;;0.30;99.90;;;;;;4919039;29;19927;-68
2022/12/14 15:49:49;;;;;;;;;;;0.20;99.90;;;;;;4913025;29;19931;-68
2022/12/14 15:52:16;;;;;;;;;;;0.10;99.90;;;;;;4920683;29;19927;-68
2022/12/14 15:54:44;;;;;;;;;;;0.00;99.90;;;;;;4916274;29;20013;-69
2022/12/14 15:57:15;;;;;;;;;;;-0.10;99.90;;;;;;4904041;29;19927;-69
2022/12/14 15:59:42;;;;;;;;;;;-0.30;99.90;;;;;;4920314;29;19930;-68
2022/12/14 16:02:15;;;;;;;;;;;-0.40;99.90;;;;;;4927174;29;19930;-68
2022/12/14 16:04:42;;;;;;;;;;;-0.50;99.90;;;;;;4912075;29;20004;-67
2022/12/14 16:07:13;;;;;;;;;;;-0.70;99.90;;;;;;4922390;29;19950;-69
2022/12/14 16:09:41;;;;;;;;;;;-0.80;99.90;;;;;;4925505;29;20351;-68
2022/12/14 16:12:15;;;;;;;;;;;-0.80;99.90;;;;;;4906194;29;19931;-68
2022/12/14 16:14:44;;;;;;;;;;;-0.90;99.90;;;;;;4922530;29;19934;-72
2022/12/14 16:17:12;;;;;;;;;;;-1.00;99.90;;;;;;4923924;29;19934;-69
2022/12/14 16:19:40;;;;;;;;;;;-1.20;99.90;;;;;;4904798;29;20421;-69
2022/12/14 16:22:13;;;;;;;;;;;-1.30;99.90;;;;;;4898498;29;20403;-68
2022/12/14 16:24:52;;;;;;;;;;;-1.30;99.90;;;;;;4922179;29;19936;-69
2022/12/14 16:27:20;;;;;;;;;;;-1.40;99.90;;;;;;4909065;29;19931;-68
2022/12/14 16:30:02;;;;;;;;;;;-1.40;99.90;;;;;;4918626;29;20351;-68
2022/12/14 16:32:29;;;;;;;;;;;-1.40;99.90;;;;;;4923354;29;19937;-69
2022/12/14 16:34:58;;;;;;;;;;;-1.40;99.90;;;;;;4924608;29;19927;-67
2022/12/14 16:37:25;;;;;;;;;;;-1.50;99.90;;;;;;4903400;29;20371;-68
2022/12/14 16:39:52;;;;;;;;;;;-1.50;99.90;;;;;;4909141;29;19935;-68
2022/12/14 16:42:31;;;;;;;;;;;-1.60;99.90;;;;;;4909863;29;19931;-68
2022/12/14 16:44:57;;;;;;;;;;;-1.60;99.90;;;;;;4915080;29;19931;-68
2022/12/14 16:47:48;;;;;;;;;;;-1.70;99.90;;;;;;4928006;29;19950;-68
2022/12/14 16:50:22;;;;;;;;;;;-1.70;99.90;;;;;;4915686;29;20350;-68
2022/12/14 16:52:49;;;;;;;;;;;-1.80;99.90;;;;;;4926781;29;19938;-68
2022/12/14 16:55:17;;;;;;;;;;;-1.90;99.90;;;;;;4914108;29;19931;-68
2022/12/14 16:57:53;;;;;;;;;;;-2.00;99.90;;;;;;4909742;29;19927;-68
2022/12/14 17:00:22;;;;;;;;;;;-2.00;99.90;;;;;;4915259;29;19931;-68
2022/12/14 17:02:54;;;;;;;;;;;-2.10;99.90;;;;;;4913317;29;19935;-68
2022/12/14 17:05:21;;;;;;;;;;;-2.10;99.90;;;;;;4913829;29;19934;-68
2022/12/14 17:07:48;;;;;;;;;;;-2.10;99.90;;;;;;4917043;29;20453;-68
2022/12/14 17:10:15;;;;;;;;;;;-2.10;99.90;;;;;;4917460;29;19968;-68
2022/12/14 17:12:44;;;;;;;;;;;-2.10;99.90;;;;;;4910616;29;19932;-68
2022/12/14 17:15:13;;;;;;;;;;;-2.20;99.90;;;;;;4915873;29;19934;-68
2022/12/14 17:17:40;;;;;;;;;;;-2.20;99.90;;;;;;4926890;29;19987;-69
2022/12/14 17:20:08;;;;;;;;;;;-2.30;99.90;;;;;;4915251;29;19927;-68
2022/12/14 17:22:35;;;;;;;;;;;-2.30;99.90;;;;;;4932773;29;19966;-68
2022/12/14 17:25:02;;;;;;;;;;;-2.40;99.90;;;;;;4925309;29;19979;-68
2022/12/14 17:27:29;;;;;;;;;;;-2.40;99.90;;;;;;4916829;29;19934;-68
2022/12/14 17:29:56;;;;;;;;;;;-2.40;99.90;;;;;;4924518;29;19934;-68
2022/12/14 17:32:25;;;;;;;;;;;-2.50;99.90;;;;;;4926938;29;19935;-68
2022/12/14 17:34:52;;;;;;;;;;;-2.40;99.90;;;;;;4913344;29;19959;-68
2022/12/14 17:37:20;;;;;;;;;;;-2.40;99.90;;;;;;4918940;29;19934;-69
2022/12/14 17:39:47;;;;;;;;;;;-2.50;99.90;;;;;;4919988;29;19928;-68
2022/12/14 17:42:15;;;;;;;;;;;-2.50;99.90;;;;;;4912280;29;19935;-68
2022/12/14 17:44:42;;;;;;;;;;;-2.50;99.90;;;;;;4916381;29;20291;-77
2022/12/14 17:47:11;;;;;;;;;;;-2.60;99.90;;;;;;4912900;29;20023;-76
2022/12/14 17:49:41;;;;;;;;;;;-2.60;99.90;;;;;;4915062;29;19931;-75
2022/12/14 17:52:12;;;;;;;;;;;-2.70;99.90;;;;;;4926157;29;20018;-73
2022/12/14 17:54:39;;;;;;;;;;;-2.80;99.90;;;;;;4907428;29;19927;-73
2022/12/14 17:57:10;;;;;;;;;;;-2.90;99.90;;;;;;4909367;29;19927;-72
2022/12/14 17:59:37;;;;;;;;;;;-3.00;99.90;;;;;;4908490;29;19927;-70
2022/12/14 18:02:12;;;;;;;;;;;-3.00;99.90;;;;;;4914059;29;19927;-69
2022/12/14 18:04:40;;;;;;;;;;;-3.10;99.90;;;;;;4928433;29;19927;-79
2022/12/14 18:07:07;;;;;;;;;;;-3.00;99.90;;;;;;4926419;29;19931;-68
2022/12/14 18:09:34;;;;;;;;;;;-3.00;99.90;;;;;;4924820;29;19935;-68
2022/12/14 18:12:01;;;;;;;;;;;-2.90;99.90;;;;;;4912142;29;19938;-69
2022/12/14 18:14:28;;;;;;;;;;;-3.00;99.90;;;;;;4909844;29;19927;-68
2022/12/14 18:16:55;;;;;;;;;;;-3.10;99.90;;;;;;4923686;29;19927;-70
2022/12/14 18:19:21;;;;;;;;;;;-3.20;99.90;;;;;;4924037;29;19931;-69
2022/12/14 18:21:50;;;;;;;;;;;-3.20;99.90;;;;;;4929582;29;19927;-69
2022/12/14 18:24:17;;;;;;;;;;;-3.30;99.90;;;;;;4918424;29;19931;-68
2022/12/14 18:26:44;;;;;;;;;;;-3.50;99.90;;;;;;4923772;29;19927;-68
2022/12/14 18:29:10;;;;;;;;;;;-3.60;99.90;;;;;;4926594;29;19927;-69
2022/12/14 18:31:38;;;;;;;;;;;-3.60;99.90;;;;;;4911823;29;19931;-68
2022/12/14 18:34:05;;;;;;;;;;;-3.70;99.90;;;;;;4924936;29;19966;-69
2022/12/14 18:36:32;;;;;;;;;;;-3.70;99.90;;;;;;4927815;29;20415;-69
2022/12/14 18:39:00;;;;;;;;;;;-3.70;99.90;;;;;;4920229;29;19931;-69
2022/12/14 18:41:28;;;;;;;;;;;-3.70;99.90;;;;;;4927048;29;20529;-66
2022/12/14 18:43:55;;;;;;;;;;;-3.80;99.90;;;;;;4927695;29;20288;-68
2022/12/14 18:46:24;;;;;;;;;;;-3.90;99.90;;;;;;4927477;29;20253;-69
2022/12/14 18:48:51;;;;;;;;;;;-4.00;99.90;;;;;;4913235;29;19927;-69